createdAt,value
2022-09-05T00:00:15.841Z,18.17
2022-09-05T00:03:03.359Z,18.18
2022-09-05T00:06:02.139Z,18.17
2022-09-05T00:08:52.504Z,18.17
2022-09-05T00:11:40.891Z,18.09
2022-09-05T00:15:17.087Z,18.16
2022-09-05T00:19:05.237Z,18.16
2022-09-05T00:24:19.596Z,18.09
2022-09-05T00:24:32.755Z,18.10
2022-09-05T00:26:50.173Z,18.14
2022-09-05T00:31:07.096Z,18.12
2022-09-05T00:32:53.351Z,18.06
2022-09-05T00:35:42.920Z,18.06
2022-09-05T00:38:18.814Z,18.07
2022-09-05T00:40:56.491Z,17.92
2022-09-05T00:43:28.258Z,17.88
2022-09-05T00:46:02.568Z,17.86
2022-09-05T00:48:41.764Z,17.85
2022-09-05T00:51:47.076Z,17.82
2022-09-05T00:54:40.912Z,17.88
2022-09-05T00:57:33.341Z,17.83
2022-09-05T01:00:17.253Z,17.91
2022-09-05T01:03:10.631Z,17.81
2022-09-05T01:06:24.336Z,17.82
2022-09-05T01:09:30.601Z,17.92
2022-09-05T01:12:14.518Z,17.88
2022-09-05T01:15:06.325Z,17.95
2022-09-05T01:17:52.765Z,17.89
2022-09-05T01:20:38.113Z,17.93
2022-09-05T01:23:18.048Z,17.86
2022-09-05T01:25:59.756Z,17.79
2022-09-05T01:29:17.657Z,17.81
2022-09-05T01:31:58.679Z,17.80
2022-09-05T01:34:42.161Z,17.63
2022-09-05T01:37:32.627Z,17.59
2022-09-05T01:40:29.472Z,17.57
2022-09-05T01:43:15.293Z,17.60
2022-09-05T01:45:50.839Z,17.54
2022-09-05T01:48:35.468Z,17.60
2022-09-05T01:51:31.540Z,17.49
2022-09-05T01:54:25.556Z,17.50
2022-09-05T01:57:21.299Z,17.44
2022-09-05T02:00:11.829Z,17.55
2022-09-05T02:02:50.726Z,17.57
2022-09-05T02:05:49.204Z,17.52
2022-09-05T02:08:15.766Z,17.52
2022-09-05T02:10:45.129Z,17.53
2022-09-05T02:13:28.838Z,17.48
2022-09-05T02:16:14.377Z,17.47
2022-09-05T02:19:16.997Z,17.51
2022-09-05T02:22:08.351Z,17.47
2022-09-05T02:26:00.689Z,17.42
2022-09-05T02:28:06.305Z,17.32
2022-09-05T02:30:58.956Z,17.28
2022-09-05T02:33:46.095Z,17.23
2022-09-05T02:36:22.681Z,17.20
2022-09-05T02:45:02.628Z,17.17
2022-09-05T02:45:14.354Z,17.13
2022-09-05T02:45:25.565Z,17.29
2022-09-05T02:48:15.889Z,17.31
2022-09-05T02:57:30.441Z,17.28
2022-09-05T02:57:39.221Z,17.40
2022-09-05T02:57:42.318Z,17.45
2022-09-05T03:00:28.399Z,17.47
2022-09-05T03:03:05.598Z,17.42
2022-09-05T03:06:03.571Z,17.50
2022-09-05T03:09:09.744Z,17.51
2022-09-05T03:12:28.641Z,17.50
2022-09-05T03:15:22.333Z,17.49
2022-09-05T03:18:20.526Z,17.39
2022-09-05T03:21:12.148Z,17.39
2022-09-05T03:24:06.024Z,17.49
2022-09-05T03:27:17.322Z,17.11
2022-09-05T03:30:01.559Z,16.49
2022-09-05T03:32:33.907Z,16.38
2022-09-05T03:35:40.756Z,16.46
2022-09-05T03:38:37.912Z,16.39
2022-09-05T03:41:36.751Z,16.49
2022-09-05T03:44:15.929Z,16.49
2022-09-05T03:46:54.597Z,16.71
2022-09-05T03:52:27.466Z,16.90
2022-09-05T03:57:05.158Z,17.09
2022-09-05T03:57:26.663Z,17.29
2022-09-05T03:59:02.762Z,17.35
2022-09-05T04:03:40.826Z,17.32
2022-09-05T04:08:18.261Z,16.49
2022-09-05T04:08:18.633Z,16.83
2022-09-05T04:10:53.706Z,16.54
2022-09-05T04:13:23.096Z,16.63
2022-09-05T04:16:04.017Z,16.91
2022-09-05T04:19:04.208Z,16.61
2022-09-05T04:21:36.787Z,16.65
2022-09-05T04:24:15.747Z,16.25
2022-09-05T04:26:48.117Z,16.54
2022-09-05T04:29:39.699Z,16.64
2022-09-05T04:32:21.436Z,16.75
2022-09-05T04:35:15.983Z,16.81
2022-09-05T04:38:09.014Z,16.33
2022-09-05T04:40:38.640Z,16.23
2022-09-05T04:43:25.885Z,16.31
2022-09-05T04:46:26.870Z,16.62
2022-09-05T04:49:11.579Z,16.64
2022-09-05T04:52:00.077Z,16.70
2022-09-05T04:54:48.866Z,16.91
2022-09-05T04:57:27.542Z,17.01
2022-09-05T05:05:58.426Z,17.12
2022-09-05T05:06:11.536Z,17.18
2022-09-05T05:06:18.132Z,17.07
2022-09-05T05:08:54.285Z,16.91
2022-09-05T05:17:53.747Z,16.61
2022-09-05T05:17:58.728Z,16.63
2022-09-05T05:18:14.682Z,16.45
2022-09-05T05:20:50.081Z,16.09
2022-09-05T05:23:21.538Z,15.97
2022-09-05T05:25:54.426Z,16.05
2022-09-05T05:28:39.082Z,16.47
2022-09-05T05:31:15.869Z,16.74
2022-09-05T05:33:49.070Z,16.93
2022-09-05T05:36:39.675Z,17.06
2022-09-05T05:39:25.118Z,17.37
2022-09-05T05:41:54.828Z,17.46
2022-09-05T05:44:29.613Z,17.11
2022-09-05T05:47:01.260Z,17.08
2022-09-05T05:49:59.418Z,16.82
2022-09-05T05:52:38.851Z,16.86
2022-09-05T05:55:51.651Z,17.27
2022-09-05T05:58:45.646Z,16.95
2022-09-05T06:01:28.873Z,16.93
2022-09-05T06:04:46.343Z,17.16
2022-09-05T06:08:01.189Z,17.49
2022-09-05T06:14:51.011Z,17.78
2022-09-05T06:14:57.015Z,17.92
2022-09-05T06:17:28.599Z,18.01
2022-09-05T06:22:11.120Z,17.99
2022-09-05T06:23:39.307Z,18.12
2022-09-05T06:26:21.488Z,18.24
2022-09-05T06:29:14.827Z,18.23
2022-09-05T06:32:01.994Z,18.27
2022-09-05T06:34:59.679Z,18.38
2022-09-05T06:37:45.327Z,18.43
2022-09-05T06:40:53.023Z,18.41
2022-09-05T06:43:38.084Z,18.38
2022-09-05T06:46:54.916Z,18.44
2022-09-05T06:49:28.436Z,18.34
2022-09-05T06:52:29.257Z,18.38
2022-09-05T06:55:27.747Z,18.44
2022-09-05T06:58:07.435Z,18.41
2022-09-05T07:00:44.789Z,18.50
2022-09-05T07:03:35.654Z,18.60
2022-09-05T07:06:20.273Z,18.49
2022-09-05T07:08:57.477Z,18.53
2022-09-05T07:11:35.740Z,18.53
2022-09-05T07:14:19.853Z,18.61
2022-09-05T07:17:12.011Z,18.67
2022-09-05T07:19:49.858Z,18.65
2022-09-05T07:22:48.944Z,18.80
2022-09-05T07:25:20.010Z,18.74
2022-09-05T07:28:28.175Z,18.77
2022-09-05T07:30:50.644Z,18.77
2022-09-05T07:33:29.370Z,18.82
2022-09-05T07:36:07.062Z,18.76
2022-09-05T07:38:52.159Z,18.70
2022-09-05T07:41:31.396Z,18.76
2022-09-05T07:44:04.695Z,18.74
2022-09-05T07:46:37.463Z,18.86
2022-09-05T07:49:12.294Z,18.82
2022-09-05T07:56:55.459Z,18.94
2022-09-05T07:57:04.918Z,19.05
2022-09-05T07:57:33.901Z,19.05
2022-09-05T08:00:29.393Z,19.06
2022-09-05T08:03:08.216Z,19.09
2022-09-05T08:05:43.394Z,19.07
2022-09-05T08:08:19.043Z,19.08
2022-09-05T08:11:22.444Z,19.20
2022-09-05T08:13:46.540Z,19.32
2022-09-05T08:16:23.284Z,19.31
2022-09-05T08:19:35.583Z,19.38
2022-09-05T08:22:04.756Z,19.40
2022-09-05T08:24:43.954Z,19.50
2022-09-05T08:27:22.464Z,19.49
2022-09-05T08:30:26.449Z,19.46
2022-09-05T08:33:11.064Z,19.49
2022-09-05T08:36:00.815Z,19.39
2022-09-05T08:38:37.359Z,19.36
2022-09-05T08:41:16.679Z,19.38
2022-09-05T08:46:44.586Z,19.36
2022-09-05T08:47:16.655Z,19.41
2022-09-05T08:50:34.400Z,19.42
2022-09-05T08:53:45.485Z,19.44
2022-09-05T08:56:23.775Z,19.41
2022-09-05T08:59:31.813Z,19.53
2022-09-05T09:02:37.427Z,19.44
2022-09-05T09:05:14.254Z,19.36
2022-09-05T09:08:01.144Z,19.41
2022-09-05T09:10:55.613Z,19.36
2022-09-05T09:13:39.345Z,19.33
2022-09-05T09:16:42.384Z,19.42
2022-09-05T09:19:15.182Z,19.49
2022-09-05T09:21:53.868Z,19.50
2022-09-05T09:24:35.714Z,19.49
2022-09-05T09:27:12.722Z,19.54
2022-09-05T09:29:42.892Z,19.54
2022-09-05T09:32:15.404Z,19.54
2022-09-05T09:34:49.576Z,19.55
2022-09-05T09:37:53.432Z,19.64
2022-09-05T09:40:29.121Z,19.59
2022-09-05T09:43:07.137Z,19.66
2022-09-05T09:45:53.249Z,19.77
2022-09-05T09:48:28.786Z,19.83
2022-09-05T09:51:19.420Z,19.80
2022-09-05T09:54:10.417Z,19.86
2022-09-05T09:56:59.015Z,19.94
2022-09-05T09:59:49.678Z,19.92
2022-09-05T10:05:57.616Z,19.91
2022-09-05T10:10:33.152Z,20.08
2022-09-05T10:10:54.225Z,20.20
2022-09-05T10:11:51.395Z,20.37
2022-09-05T10:14:05.476Z,20.46
2022-09-05T10:17:00.221Z,20.44
2022-09-05T10:20:10.351Z,20.51
2022-09-05T10:23:11.667Z,20.64
2022-09-05T10:25:59.487Z,20.77
2022-09-05T10:28:49.667Z,20.77
2022-09-05T10:33:19.914Z,20.78
2022-09-05T10:35:14.709Z,20.81
2022-09-05T10:37:12.279Z,20.87
2022-09-05T10:39:43.673Z,20.83
2022-09-05T10:42:15.672Z,20.78
2022-09-05T10:44:52.727Z,20.80
2022-09-05T10:47:52.995Z,20.58
2022-09-05T10:50:33.064Z,20.52
2022-09-05T10:53:19.867Z,20.42
2022-09-05T10:56:03.465Z,20.42
2022-09-05T11:02:16.277Z,20.55
2022-09-05T11:02:28.148Z,20.49
2022-09-05T11:04:55.209Z,20.51
2022-09-05T11:07:54.258Z,20.52
2022-09-05T11:10:35.179Z,20.52
2022-09-05T11:13:30.962Z,20.61
2022-09-05T11:16:14.218Z,20.64
2022-09-05T11:19:02.438Z,20.83
2022-09-05T11:21:32.363Z,20.92
2022-09-05T11:24:20.148Z,20.85
2022-09-05T11:27:23.490Z,20.82
2022-09-05T11:29:51.053Z,20.84
2022-09-05T11:39:59.504Z,20.88
2022-09-05T11:40:00.001Z,20.88
2022-09-05T11:40:10.436Z,20.82
2022-09-05T11:42:10.974Z,20.98
2022-09-05T11:45:10.314Z,20.89
2022-09-05T11:47:55.636Z,20.98
2022-09-05T11:50:46.468Z,20.98
2022-09-05T11:53:54.066Z,21.04
2022-09-05T11:56:53.525Z,21.06
2022-09-05T11:59:37.770Z,21.17
2022-09-05T12:02:37.727Z,21.44
2022-09-05T12:05:49.561Z,21.49
2022-09-05T12:09:03.225Z,21.49
2022-09-05T12:11:55.231Z,21.52
2022-09-05T12:14:54.078Z,21.59
2022-09-05T12:17:40.661Z,21.58
2022-09-05T12:20:37.504Z,21.62
2022-09-05T12:23:39.908Z,21.62
2022-09-05T12:27:42.928Z,21.63
2022-09-05T12:29:48.610Z,21.75
2022-09-05T12:33:32.762Z,21.73
2022-09-05T12:36:06.884Z,21.69
2022-09-05T12:40:16.564Z,21.71
2022-09-05T12:41:43.449Z,21.70
2022-09-05T12:44:41.053Z,21.75
2022-09-05T12:47:16.609Z,21.71
2022-09-05T12:50:02.855Z,21.78
2022-09-05T12:52:35.542Z,21.71
2022-09-05T12:55:17.826Z,21.64
2022-09-05T12:59:50.912Z,21.66
2022-09-05T13:03:11.950Z,21.79
2022-09-05T13:03:53.544Z,21.90
2022-09-05T13:06:31.084Z,21.72
2022-09-05T13:09:16.889Z,21.87
2022-09-05T13:14:50.708Z,21.85
2022-09-05T13:15:14.022Z,21.86
2022-09-05T13:17:48.876Z,21.95
2022-09-05T13:20:36.680Z,21.94
2022-09-05T13:23:12.737Z,21.87
2022-09-05T13:25:44.720Z,21.84
2022-09-05T13:28:14.748Z,21.84
2022-09-05T13:34:12.692Z,21.90
2022-09-05T13:38:03.246Z,21.92
2022-09-05T13:38:07.595Z,21.93
2022-09-05T13:39:39.228Z,21.94
2022-09-05T13:42:10.232Z,21.95
2022-09-05T13:44:46.522Z,21.92
2022-09-05T13:47:29.683Z,22.00
2022-09-05T13:50:22.480Z,21.86
2022-09-05T13:52:56.900Z,22.00
2022-09-05T13:55:38.958Z,22.03
2022-09-05T13:58:25.231Z,21.96
2022-09-05T14:01:18.922Z,21.93
2022-09-05T14:10:15.917Z,21.98
2022-09-05T14:12:52.736Z,22.05
2022-09-05T14:15:58.792Z,22.14
2022-09-05T14:18:32.424Z,22.09
2022-09-05T14:21:18.974Z,22.11
2022-09-05T14:23:56.728Z,22.13
2022-09-05T14:26:35.438Z,22.11
2022-09-05T14:29:14.779Z,22.17
2022-09-05T14:37:45.690Z,22.23
2022-09-05T14:37:58.360Z,22.24
2022-09-05T14:38:25.426Z,22.26
2022-09-05T14:41:20.033Z,22.51
2022-09-05T14:44:01.054Z,22.51
2022-09-05T14:46:39.817Z,22.56
2022-09-05T14:49:31.684Z,22.62
2022-09-05T14:51:58.620Z,22.62
2022-09-05T15:02:43.423Z,22.85
2022-09-05T15:02:58.536Z,22.93
2022-09-05T15:03:12.545Z,22.96
2022-09-05T15:05:46.339Z,22.91
2022-09-05T15:10:52.464Z,22.83
2022-09-05T15:12:22.902Z,22.85
2022-09-05T15:14:05.066Z,22.76
2022-09-05T15:16:38.796Z,22.79
2022-09-05T15:19:14.563Z,22.83
2022-09-05T15:21:41.513Z,22.80
2022-09-05T15:24:29.565Z,22.75
2022-09-05T15:27:01.902Z,22.69
2022-09-05T15:29:34.478Z,22.70
2022-09-05T15:32:23.709Z,22.69
2022-09-05T15:34:54.572Z,22.56
2022-09-05T15:37:30.757Z,22.68
2022-09-05T15:40:23.280Z,22.70
2022-09-05T15:42:55.812Z,22.77
2022-09-05T15:45:35.524Z,22.79
2022-09-05T15:48:21.736Z,22.79
2022-09-05T15:50:51.609Z,22.79
2022-09-05T15:53:29.291Z,22.83
2022-09-05T15:56:28.260Z,22.81
2022-09-05T15:58:59.034Z,22.75
2022-09-05T16:02:00.327Z,22.70
2022-09-05T16:08:08.218Z,22.59
2022-09-05T16:10:38.381Z,22.59
2022-09-05T16:10:39.374Z,22.54
2022-09-05T16:13:33.932Z,22.55
2022-09-05T16:23:11.626Z,22.40
2022-09-05T16:23:28.978Z,22.38
2022-09-05T16:23:34.732Z,22.35
2022-09-05T16:24:59.069Z,22.30
2022-09-05T16:27:54.159Z,22.31
2022-09-05T16:30:22.240Z,22.38
2022-09-05T16:32:54.157Z,22.32
2022-09-05T16:35:26.668Z,22.26
2022-09-05T16:38:02.806Z,22.20
2022-09-05T16:40:35.424Z,22.18
2022-09-05T16:43:08.568Z,22.09
2022-09-05T16:45:43.359Z,22.12
2022-09-05T16:48:16.634Z,22.09
2022-09-05T16:50:53.447Z,22.04
2022-09-05T16:53:30.569Z,21.98
2022-09-05T16:56:04.213Z,21.92
2022-09-05T16:58:40.132Z,21.93
2022-09-05T17:01:09.946Z,21.90
2022-09-05T17:03:49.314Z,21.94
2022-09-05T17:06:46.281Z,21.91
2022-09-05T17:09:21.583Z,21.81
2022-09-05T17:12:01.439Z,21.74
2022-09-05T17:14:34.767Z,21.72
2022-09-05T17:17:44.071Z,21.73
2022-09-05T17:20:06.980Z,21.73
2022-09-05T17:26:11.644Z,21.76
2022-09-05T17:29:23.472Z,21.79
2022-09-05T17:29:26.427Z,21.74
2022-09-05T17:31:55.887Z,21.71
2022-09-05T17:34:49.843Z,21.61
2022-09-05T17:37:32.234Z,21.64
2022-09-05T17:40:25.360Z,21.62
2022-09-05T17:42:56.698Z,21.56
2022-09-05T17:45:44.969Z,21.53
2022-09-05T17:48:36.012Z,21.52
2022-09-05T17:51:02.660Z,21.52
2022-09-05T17:53:33.297Z,21.52
2022-09-05T17:55:59.922Z,21.55
2022-09-05T17:58:49.521Z,20.92
2022-09-05T18:01:27.164Z,20.81
2022-09-05T18:04:15.773Z,20.64
2022-09-05T18:09:48.077Z,20.70
2022-09-05T18:13:31.951Z,20.48
2022-09-05T18:15:27.553Z,20.35
2022-09-05T18:17:54.766Z,20.05
2022-09-05T18:20:34.566Z,20.07
2022-09-05T18:23:19.344Z,19.92
2022-09-05T18:26:09.362Z,19.70
2022-09-05T18:29:02.806Z,19.65
2022-09-05T18:31:41.991Z,19.87
2022-09-05T18:34:15.249Z,19.84
2022-09-05T18:36:44.764Z,20.12
2022-09-05T18:39:24.801Z,19.97
2022-09-05T18:42:14.783Z,20.27
2022-09-05T18:45:03.651Z,20.42
2022-09-05T18:47:59.081Z,20.25
2022-09-05T18:50:33.959Z,20.10
2022-09-05T18:53:10.629Z,20.21
2022-09-05T18:56:12.488Z,20.23
2022-09-05T18:58:51.646Z,20.20
2022-09-05T19:01:28.542Z,20.30
2022-09-05T19:04:00.255Z,20.28
2022-09-05T19:06:36.096Z,20.10
2022-09-05T19:09:09.522Z,20.29
2022-09-05T19:12:18.282Z,20.16
2022-09-05T19:14:50.762Z,20.14
2022-09-05T19:17:24.262Z,20.14
2022-09-05T19:20:30.918Z,20.17
2022-09-05T19:23:21.933Z,20.05
2022-09-05T19:25:59.109Z,20.03
2022-09-05T19:36:46.779Z,19.85
2022-09-05T19:37:07.381Z,19.88
2022-09-05T19:37:25.452Z,19.94
2022-09-05T19:37:31.120Z,19.79
2022-09-05T19:43:02.583Z,19.83
2022-09-05T19:47:36.820Z,19.77
2022-09-05T19:47:43.634Z,19.69
2022-09-05T19:48:34.646Z,19.62
2022-09-05T19:51:17.143Z,19.64
2022-09-05T19:53:53.943Z,19.55
2022-09-05T19:56:40.076Z,19.28
2022-09-05T19:59:22.490Z,19.25
2022-09-05T20:01:52.024Z,18.92
2022-09-05T20:04:20.814Z,19.16
2022-09-05T20:06:49.747Z,19.12
2022-09-05T20:09:19.461Z,19.24
2022-09-05T20:11:49.880Z,19.13
2022-09-05T20:14:30.872Z,19.17
2022-09-05T20:17:26.691Z,18.90
2022-09-05T20:20:15.566Z,18.61
2022-09-05T20:22:50.668Z,18.90
2022-09-05T20:25:43.579Z,18.81
2022-09-05T20:28:14.851Z,18.80
2022-09-05T20:30:44.870Z,18.93
2022-09-05T20:33:30.345Z,19.11
2022-09-05T20:43:12.031Z,19.21
2022-09-05T20:43:27.431Z,19.28
2022-09-05T20:43:36.549Z,19.06
2022-09-05T20:44:41.823Z,18.99
2022-09-05T20:54:13.078Z,18.91
2022-09-05T20:54:13.196Z,18.91
2022-09-05T20:54:25.800Z,18.84
2022-09-05T20:56:22.735Z,18.81
2022-09-05T20:58:50.584Z,18.91
2022-09-05T21:01:24.560Z,18.51
2022-09-05T21:04:02.479Z,18.63
2022-09-05T21:06:33.961Z,18.32
2022-09-05T21:09:24.598Z,18.35
2022-09-05T21:11:54.722Z,18.35
2022-09-05T21:14:23.511Z,18.36
2022-09-05T21:17:16.018Z,18.37
2022-09-05T21:19:53.435Z,18.50
2022-09-05T21:22:21.009Z,18.54
2022-09-05T21:24:48.557Z,18.58
2022-09-05T21:27:22.747Z,18.56
2022-09-05T21:29:58.803Z,18.40
2022-09-05T21:32:36.158Z,18.23
2022-09-05T21:35:34.534Z,18.28
2022-09-05T21:37:53.884Z,18.40
2022-09-05T21:40:21.616Z,18.25
2022-09-05T21:47:21.657Z,18.20
2022-09-05T21:47:39.617Z,18.33
2022-09-05T21:48:24.207Z,18.27
2022-09-05T21:50:53.506Z,18.24
2022-09-05T21:59:16.214Z,18.28
2022-09-05T21:59:28.596Z,18.37
2022-09-05T21:59:36.659Z,18.42
2022-09-05T22:02:08.460Z,18.25
2022-09-05T22:04:41.313Z,17.91
2022-09-05T22:07:15.781Z,18.10
2022-09-05T22:09:46.154Z,18.11
2022-09-05T22:12:30.086Z,18.09
2022-09-05T22:14:57.984Z,18.12
2022-09-05T22:17:45.241Z,18.24
2022-09-05T22:20:15.229Z,18.30
2022-09-05T22:22:42.784Z,18.30
2022-09-05T22:25:27.286Z,18.32
2022-09-05T22:28:03.175Z,18.33
2022-09-05T22:30:29.789Z,18.31
2022-09-05T22:32:56.366Z,17.82
2022-09-05T22:35:28.258Z,17.54
2022-09-05T22:38:11.678Z,17.57
2022-09-05T22:40:41.492Z,17.55
2022-09-05T22:43:09.692Z,17.67
2022-09-05T22:45:38.057Z,17.46
2022-09-05T22:48:13.149Z,17.79
2022-09-05T22:50:41.085Z,17.86
2022-09-05T22:53:09.865Z,17.95
2022-09-05T22:55:40.232Z,17.96
2022-09-05T22:58:08.962Z,17.64
2022-09-05T23:00:36.314Z,17.50
2022-09-05T23:03:05.794Z,17.58
2022-09-05T23:05:33.646Z,17.71
2022-09-05T23:08:01.637Z,17.51
2022-09-05T23:10:30.052Z,17.44
2022-09-05T23:12:57.503Z,17.25
2022-09-05T23:15:25.527Z,17.50
2022-09-05T23:17:56.513Z,17.71
2022-09-05T23:20:24.703Z,17.71
2022-09-05T23:22:51.466Z,17.86
2022-09-05T23:25:18.591Z,17.56
2022-09-05T23:27:45.289Z,17.52
2022-09-05T23:30:12.208Z,17.66
2022-09-05T23:32:50.807Z,17.48
2022-09-05T23:35:18.772Z,17.37
2022-09-05T23:37:46.949Z,17.43
2022-09-05T23:40:20.157Z,17.24
2022-09-05T23:42:54.892Z,17.29
2022-09-05T23:45:23.066Z,17.49
2022-09-05T23:47:49.727Z,17.57
2022-09-05T23:50:17.447Z,17.45
2022-09-05T23:52:45.841Z,17.60
2022-09-05T23:55:16.127Z,17.57
2022-09-05T23:57:42.989Z,17.42
